createdAt,value
2022-12-08T00:00:33.222Z,99047.77
2022-12-08T00:02:38.046Z,99046.02
2022-12-08T00:04:43.021Z,99047.16
2022-12-08T00:06:47.855Z,99041.17
2022-12-08T00:08:52.846Z,99043.05
2022-12-08T00:10:57.630Z,99039.75
2022-12-08T00:13:02.315Z,99041.55
2022-12-08T00:15:08.477Z,99039.51
2022-12-08T00:17:14.870Z,99039.52
2022-12-08T00:19:19.466Z,99034.63
2022-12-08T00:21:24.235Z,99035.29
2022-12-08T00:23:28.912Z,99034.94
2022-12-08T00:25:34.956Z,99030.73
2022-12-08T00:27:39.648Z,99030.75
2022-12-08T00:29:46.094Z,99027.90
2022-12-08T00:31:50.848Z,99030.29
2022-12-08T00:33:55.673Z,99026.60
2022-12-08T00:36:04.629Z,99025.88
2022-12-08T00:38:09.220Z,99023.73
2022-12-08T00:40:14.183Z,99024.22
2022-12-08T00:42:18.852Z,99023.63
2022-12-08T00:44:23.628Z,99024.92
2022-12-08T00:46:28.345Z,99021.34
2022-12-08T00:48:33.055Z,99018.81
2022-12-08T00:50:37.693Z,99019.46
2022-12-08T00:52:42.996Z,99020.66
2022-12-08T00:54:48.039Z,99023.44
2022-12-08T00:56:52.993Z,99023.71
2022-12-08T00:58:57.644Z,99023.54
2022-12-08T01:01:02.321Z,99023.35
2022-12-08T01:03:09.243Z,99025.41
2022-12-08T01:05:13.977Z,99023.84
2022-12-08T01:07:18.680Z,99025.05
2022-12-08T01:09:24.629Z,99026.50
2022-12-08T01:11:29.337Z,99025.72
2022-12-08T01:13:34.137Z,99024.27
2022-12-08T01:15:38.777Z,99022.05
2022-12-08T01:17:43.451Z,99022.16
2022-12-08T01:19:48.157Z,99022.83
2022-12-08T01:21:52.876Z,99020.48
2022-12-08T01:23:59.353Z,99021.64
2022-12-08T01:26:08.682Z,99023.34
2022-12-08T01:28:13.366Z,99018.18
2022-12-08T01:30:18.443Z,99019.64
2022-12-08T01:32:23.176Z,99017.46
2022-12-08T01:34:27.937Z,99020.70
2022-12-08T01:36:33.711Z,99021.74
2022-12-08T01:38:38.412Z,99016.95
2022-12-08T01:40:43.152Z,99012.77
2022-12-08T01:42:47.887Z,99010.61
2022-12-08T01:44:56.200Z,99010.50
2022-12-08T01:47:00.898Z,99012.34
2022-12-08T01:49:10.928Z,99009.42
2022-12-08T01:51:15.948Z,99007.35
2022-12-08T01:53:23.656Z,99008.54
2022-12-08T01:55:32.225Z,99003.53
2022-12-08T01:57:41.618Z,99000.20
2022-12-08T01:59:49.888Z,98995.96
2022-12-08T02:01:54.942Z,98991.41
2022-12-08T02:04:01.985Z,98988.21
2022-12-08T02:06:07.417Z,98991.89
2022-12-08T02:08:14.469Z,98993.32
2022-12-08T02:10:21.813Z,98988.68
2022-12-08T02:12:26.591Z,98987.10
2022-12-08T02:14:31.379Z,98981.65
2022-12-08T02:16:44.068Z,98980.09
2022-12-08T02:19:29.666Z,98977.83
2022-12-08T02:21:34.318Z,98975.11
2022-12-08T02:23:51.059Z,98972.89
2022-12-08T02:26:24.179Z,98968.89
2022-12-08T02:28:52.565Z,98964.05
2022-12-08T02:31:11.238Z,98965.23
2022-12-08T02:33:43.752Z,98962.28
2022-12-08T02:35:56.979Z,98959.36
2022-12-08T02:38:08.744Z,98955.88
2022-12-08T02:40:21.267Z,98952.02
2022-12-08T02:42:31.740Z,98950.16
2022-12-08T02:44:41.185Z,98944.13
2022-12-08T02:46:52.605Z,98944.20
2022-12-08T02:48:57.890Z,98943.02
2022-12-08T02:51:02.498Z,98939.99
2022-12-08T02:55:19.327Z,98938.06
2022-12-08T02:57:44.197Z,98936.73
2022-12-08T03:00:05.016Z,98934.91
2022-12-08T03:02:29.003Z,98931.30
2022-12-08T03:04:41.815Z,98929.71
2022-12-08T03:06:57.711Z,98928.56
2022-12-08T03:09:10.413Z,98933.05
2022-12-08T03:11:21.485Z,98927.98
2022-12-08T03:13:32.504Z,98926.89
2022-12-08T03:15:38.913Z,98926.23
2022-12-08T03:17:49.096Z,98926.69
2022-12-08T03:19:58.172Z,98923.41
2022-12-08T03:22:06.512Z,98918.32
2022-12-08T03:24:12.828Z,98918.51
2022-12-08T03:26:25.677Z,98917.20
2022-12-08T03:28:30.484Z,98917.34
2022-12-08T03:30:40.304Z,98916.98
2022-12-08T03:32:50.633Z,98919.27
2022-12-08T03:34:59.993Z,98918.10
2022-12-08T03:37:04.580Z,98919.23
2022-12-08T03:39:09.241Z,98916.96
2022-12-08T03:41:13.952Z,98915.79
2022-12-08T03:43:18.559Z,98916.30
2022-12-08T03:45:23.359Z,98909.55
2022-12-08T03:47:27.969Z,98910.66
2022-12-08T03:49:32.634Z,98903.84
2022-12-08T03:51:37.261Z,98905.21
2022-12-08T03:53:42.275Z,98905.83
2022-12-08T03:55:46.875Z,98908.62
2022-12-08T03:57:51.503Z,98905.79
2022-12-08T03:59:56.161Z,98901.44
2022-12-08T04:02:00.936Z,98902.31
2022-12-08T04:04:06.024Z,98896.06
2022-12-08T04:06:10.706Z,98896.60
2022-12-08T04:08:15.528Z,98896.60
2022-12-08T04:10:20.338Z,98898.55
2022-12-08T04:12:24.920Z,98891.82
2022-12-08T04:14:29.519Z,98893.65
2022-12-08T04:16:34.237Z,98895.52
2022-12-08T04:18:38.955Z,98888.23
2022-12-08T04:20:44.772Z,98890.27
2022-12-08T04:22:49.352Z,98894.51
2022-12-08T04:24:54.216Z,98894.05
2022-12-08T04:26:58.822Z,98890.94
2022-12-08T04:29:03.495Z,98887.50
2022-12-08T04:31:08.414Z,98889.69
2022-12-08T04:33:13.100Z,98888.25
2022-12-08T04:35:18.653Z,98885.77
2022-12-08T04:37:23.336Z,98886.82
2022-12-08T04:39:28.143Z,98884.88
2022-12-08T04:41:32.972Z,98884.67
2022-12-08T04:43:38.306Z,98879.56
2022-12-08T04:45:43.144Z,98873.95
2022-12-08T04:47:47.825Z,98875.52
2022-12-08T04:49:52.783Z,98872.90
2022-12-08T04:51:57.558Z,98871.59
2022-12-08T04:54:02.380Z,98869.55
2022-12-08T04:56:13.339Z,98871.50
2022-12-08T04:58:19.626Z,98869.36
2022-12-08T05:00:24.311Z,98867.17
2022-12-08T05:02:28.972Z,98864.81
2022-12-08T05:04:33.646Z,98858.08
2022-12-08T05:06:39.413Z,98857.20
2022-12-08T05:08:44.793Z,98855.85
2022-12-08T05:10:49.386Z,98856.88
2022-12-08T05:12:54.086Z,98851.99
2022-12-08T05:14:58.727Z,98855.54
2022-12-08T05:17:09.147Z,98857.79
2022-12-08T05:19:14.780Z,98853.95
2022-12-08T05:21:19.463Z,98852.40
2022-12-08T05:23:24.175Z,98852.55
2022-12-08T05:25:28.869Z,98856.70
2022-12-08T05:27:33.512Z,98852.28
2022-12-08T05:29:38.155Z,98852.82
2022-12-08T05:31:42.905Z,98855.92
2022-12-08T05:33:49.165Z,98851.80
2022-12-08T05:35:53.846Z,98851.38
2022-12-08T05:37:58.510Z,98852.16
2022-12-08T05:40:03.862Z,98850.67
2022-12-08T05:42:08.922Z,98852.28
2022-12-08T05:44:13.521Z,98852.59
2022-12-08T05:46:18.682Z,98850.48
2022-12-08T05:48:23.391Z,98854.96
2022-12-08T05:50:28.056Z,98857.25
2022-12-08T05:52:33.162Z,98852.36
2022-12-08T05:54:37.982Z,98853.63
2022-12-08T05:56:42.728Z,98850.18
2022-12-08T05:58:47.757Z,98851.38
2022-12-08T06:00:52.885Z,98849.30
2022-12-08T06:02:57.629Z,98846.37
2022-12-08T06:05:02.345Z,98843.14
2022-12-08T06:07:13.083Z,98843.45
2022-12-08T06:09:20.570Z,98839.65
2022-12-08T06:11:27.094Z,98834.73
2022-12-08T06:13:31.741Z,98836.65
2022-12-08T06:15:37.352Z,98839.38
2022-12-08T06:17:42.062Z,98838.02
2022-12-08T06:19:46.636Z,98839.98
2022-12-08T06:21:51.324Z,98842.83
2022-12-08T06:23:56.082Z,98844.64
2022-12-08T06:26:04.155Z,98844.80
2022-12-08T06:28:08.789Z,98843.11
2022-12-08T06:30:16.672Z,98839.44
2022-12-08T06:32:27.092Z,98837.50
2022-12-08T06:34:32.217Z,98839.15
2022-12-08T06:36:36.935Z,98833.37
2022-12-08T06:38:43.738Z,98826.73
2022-12-08T06:40:55.577Z,98829.11
2022-12-08T06:43:00.522Z,98829.77
2022-12-08T06:45:06.376Z,98831.14
2022-12-08T06:47:11.159Z,98835.11
2022-12-08T06:49:15.909Z,98834.56
2022-12-08T06:51:21.872Z,98834.23
2022-12-08T06:53:26.713Z,98833.70
2022-12-08T06:57:57.180Z,98828.31
2022-12-08T07:00:02.433Z,98829.84
2022-12-08T07:02:07.380Z,98830.11
2022-12-08T07:04:12.079Z,98829.00
2022-12-08T07:06:19.319Z,98834.04
2022-12-08T07:08:24.061Z,98828.60
2022-12-08T07:10:28.796Z,98825.24
2022-12-08T07:12:33.534Z,98828.35
2022-12-08T07:14:38.197Z,98830.25
2022-12-08T07:16:42.887Z,98822.95
2022-12-08T07:18:47.686Z,98825.70
2022-12-08T07:20:52.333Z,98823.08
2022-12-08T07:22:57.005Z,98819.36
2022-12-08T07:25:01.719Z,98821.71
2022-12-08T07:27:06.420Z,98818.92
2022-12-08T07:29:12.587Z,98822.72
2022-12-08T07:31:22.175Z,98820.52
2022-12-08T07:33:27.097Z,98818.17
2022-12-08T07:35:33.472Z,98816.05
2022-12-08T07:37:39.837Z,98817.88
2022-12-08T07:39:44.482Z,98821.98
2022-12-08T07:41:49.116Z,98821.20
2022-12-08T07:43:54.210Z,98823.22
2022-12-08T07:45:58.970Z,98821.09
2022-12-08T07:48:03.934Z,98824.67
2022-12-08T07:50:10.105Z,98822.84
2022-12-08T07:52:14.780Z,98821.84
2022-12-08T07:54:19.519Z,98826.16
2022-12-08T07:56:24.200Z,98823.54
2022-12-08T07:58:28.814Z,98825.36
2022-12-08T08:00:33.650Z,98823.09
2022-12-08T08:02:38.504Z,98829.10
2022-12-08T08:04:43.577Z,98828.05
2022-12-08T08:06:48.422Z,98825.92
2022-12-08T08:08:53.298Z,98829.59
2022-12-08T08:10:58.272Z,98825.19
2022-12-08T08:13:03.247Z,98821.55
2022-12-08T08:15:10.123Z,98828.38
2022-12-08T08:17:14.974Z,98825.94
2022-12-08T08:19:19.876Z,98827.33
2022-12-08T08:23:49.448Z,98830.79
2022-12-08T08:25:54.556Z,98832.58
2022-12-08T08:27:59.324Z,98827.60
2022-12-08T08:30:04.824Z,98829.49
2022-12-08T08:32:09.835Z,98825.38
2022-12-08T08:34:15.123Z,98823.59
2022-12-08T08:36:19.883Z,98822.52
2022-12-08T08:38:25.011Z,98822.04
2022-12-08T08:40:29.734Z,98819.81
2022-12-08T08:42:34.373Z,98820.60
2022-12-08T08:44:39.173Z,98819.09
2022-12-08T08:46:43.972Z,98818.34
2022-12-08T08:48:48.653Z,98818.95
2022-12-08T08:50:53.660Z,98813.58
2022-12-08T08:52:58.452Z,98816.77
2022-12-08T08:55:03.464Z,98814.09
2022-12-08T08:57:08.405Z,98814.30
2022-12-08T08:59:13.025Z,98814.56
2022-12-08T09:01:19.015Z,98819.34
2022-12-08T09:03:23.751Z,98817.52
2022-12-08T09:05:28.549Z,98816.48
2022-12-08T09:07:33.553Z,98817.29
2022-12-08T09:09:38.272Z,98811.06
2022-12-08T09:11:43.085Z,98816.86
2022-12-08T09:13:48.976Z,98817.80
2022-12-08T09:15:53.610Z,98812.88
2022-12-08T09:17:58.269Z,98817.98
2022-12-08T09:20:03.509Z,98810.77
2022-12-08T09:22:08.476Z,98813.05
2022-12-08T09:24:13.185Z,98806.38
2022-12-08T09:26:17.885Z,98806.20
2022-12-08T09:28:22.632Z,98800.66
2022-12-08T09:30:27.298Z,98794.29
2022-12-08T09:32:32.201Z,98793.91
2022-12-08T09:34:36.870Z,98793.39
2022-12-08T09:36:41.789Z,98791.34
2022-12-08T09:38:46.498Z,98790.77
2022-12-08T09:40:53.190Z,98790.61
2022-12-08T09:43:08.948Z,98787.64
2022-12-08T09:45:16.925Z,98781.99
2022-12-08T09:47:30.617Z,98780.14
2022-12-08T09:49:44.888Z,98772.33
2022-12-08T09:51:49.761Z,98771.22
2022-12-08T09:53:59.847Z,98768.86
2022-12-08T09:56:06.965Z,98765.42
2022-12-08T09:58:21.308Z,98760.77
2022-12-08T10:00:26.356Z,98756.79
2022-12-08T10:02:31.900Z,98754.36
2022-12-08T10:04:38.698Z,98750.10
2022-12-08T10:06:48.326Z,98744.80
2022-12-08T10:09:02.554Z,98741.65
2022-12-08T10:11:13.622Z,98737.64
2022-12-08T10:13:27.762Z,98740.03
2022-12-08T10:15:47.162Z,98740.67
2022-12-08T10:17:54.376Z,98738.64
2022-12-08T10:20:02.293Z,98737.64
2022-12-08T10:22:19.272Z,98730.00
2022-12-08T10:24:29.415Z,98734.41
2022-12-08T10:26:34.094Z,98725.80
2022-12-08T10:28:44.430Z,98717.96
2022-12-08T10:30:49.855Z,98717.88
2022-12-08T10:32:55.449Z,98713.61
2022-12-08T10:35:09.171Z,98710.61
2022-12-08T10:37:16.794Z,98706.80
2022-12-08T10:39:39.576Z,98707.99
2022-12-08T10:41:44.280Z,98706.29
2022-12-08T10:43:54.970Z,98706.02
2022-12-08T10:46:10.483Z,98707.66
2022-12-08T10:48:22.364Z,98697.52
2022-12-08T10:50:34.004Z,98697.63
2022-12-08T10:52:41.413Z,98694.15
2022-12-08T10:54:46.194Z,98692.15
2022-12-08T10:56:55.563Z,98688.73
2022-12-08T10:59:16.077Z,98682.45
2022-12-08T11:01:24.140Z,98678.27
2022-12-08T11:03:33.106Z,98674.53
2022-12-08T11:05:38.672Z,98674.27
2022-12-08T11:07:49.750Z,98671.39
2022-12-08T11:09:57.278Z,98667.98
2022-12-08T11:12:07.056Z,98664.37
2022-12-08T11:14:16.498Z,98659.37
2022-12-08T11:16:22.945Z,98658.63
2022-12-08T11:18:31.080Z,98653.52
2022-12-08T11:20:41.402Z,98650.23
2022-12-08T11:22:50.981Z,98643.59
2022-12-08T11:25:08.878Z,98639.77
2022-12-08T11:27:13.715Z,98637.69
2022-12-08T11:29:18.564Z,98632.84
2022-12-08T11:31:31.006Z,98627.72
2022-12-08T11:33:36.211Z,98624.20
2022-12-08T11:35:44.291Z,98624.82
2022-12-08T11:37:49.078Z,98624.90
2022-12-08T11:39:57.465Z,98623.06
2022-12-08T11:42:06.671Z,98624.45
2022-12-08T11:44:22.247Z,98626.12
2022-12-08T11:46:32.621Z,98626.45
2022-12-08T11:48:41.009Z,98623.47
2022-12-08T11:50:50.775Z,98626.17
2022-12-08T11:52:57.017Z,98629.86
2022-12-08T11:55:06.619Z,98628.81
2022-12-08T11:57:14.150Z,98626.23
2022-12-08T11:59:26.369Z,98628.34
2022-12-08T12:01:30.960Z,98624.10
2022-12-08T12:03:41.814Z,98625.33
2022-12-08T12:06:30.897Z,98624.85
2022-12-08T12:08:35.903Z,98624.13
2022-12-08T12:11:02.238Z,98623.52
2022-12-08T12:13:25.308Z,98620.33
2022-12-08T12:16:05.814Z,98623.34
2022-12-08T12:18:20.326Z,98623.05
2022-12-08T12:20:29.736Z,98621.30
2022-12-08T12:22:37.757Z,98617.70
2022-12-08T12:24:46.395Z,98616.64
2022-12-08T12:26:58.650Z,98612.67
2022-12-08T12:29:05.950Z,98610.15
2022-12-08T12:31:15.019Z,98608.52
2022-12-08T12:33:20.627Z,98610.71
2022-12-08T12:35:32.807Z,98610.33
2022-12-08T12:37:40.447Z,98612.20
2022-12-08T12:39:58.253Z,98615.41
2022-12-08T12:42:06.552Z,98608.23
2022-12-08T12:44:25.147Z,98608.86
2022-12-08T12:46:53.113Z,98608.45
2022-12-08T12:49:34.772Z,98609.92
2022-12-08T12:51:46.515Z,98611.77
2022-12-08T12:53:51.866Z,98612.42
2022-12-08T12:55:58.869Z,98613.62
2022-12-08T12:58:18.936Z,98613.35
2022-12-08T13:00:26.186Z,98613.45
2022-12-08T13:02:34.123Z,98610.89
2022-12-08T13:04:39.303Z,98613.33
2022-12-08T13:06:48.446Z,98608.70
2022-12-08T13:08:55.373Z,98608.81
2022-12-08T13:11:03.765Z,98612.92
2022-12-08T13:13:18.820Z,98611.23
2022-12-08T13:15:24.086Z,98609.36
2022-12-08T13:17:30.787Z,98606.81
2022-12-08T13:19:39.102Z,98605.99
2022-12-08T13:21:43.960Z,98600.36
2022-12-08T13:23:50.791Z,98598.63
2022-12-08T13:26:11.899Z,98597.89
2022-12-08T13:28:20.430Z,98594.78
2022-12-08T13:30:44.824Z,98593.27
2022-12-08T13:35:25.385Z,98594.08
2022-12-08T13:37:34.192Z,98595.62
2022-12-08T13:39:47.621Z,98599.19
2022-12-08T13:42:01.215Z,98600.98
2022-12-08T13:55:00.690Z,98602.72
2022-12-08T13:59:24.135Z,98601.30
2022-12-08T14:01:28.887Z,98600.48
2022-12-08T14:04:04.697Z,98604.27
2022-12-08T14:06:17.460Z,98605.80
2022-12-08T14:08:57.879Z,98607.81
2022-12-08T14:10:58.895Z,98605.34
2022-12-08T14:13:06.317Z,98603.47
2022-12-08T14:15:15.676Z,98599.88
2022-12-08T14:17:22.798Z,98602.20
2022-12-08T14:19:29.152Z,98602.98
2022-12-08T14:21:36.213Z,98603.79
2022-12-08T14:23:45.181Z,98604.48
2022-12-08T14:25:50.208Z,98602.16
2022-12-08T14:27:59.203Z,98601.67
2022-12-08T14:30:06.596Z,98604.59
2022-12-08T14:32:27.367Z,98603.42
2022-12-08T14:34:34.554Z,98597.71
2022-12-08T14:36:39.369Z,98601.60
2022-12-08T14:38:44.970Z,98601.79
2022-12-08T14:40:59.646Z,98600.00
2022-12-08T14:43:19.289Z,98603.09
2022-12-08T14:45:24.024Z,98602.29
2022-12-08T14:47:33.597Z,98607.05
2022-12-08T14:49:40.598Z,98606.72
2022-12-08T14:51:45.325Z,98604.94
2022-12-08T14:53:55.517Z,98607.20
2022-12-08T14:56:00.408Z,98604.08
2022-12-08T14:58:05.567Z,98604.41
2022-12-08T15:00:20.768Z,98603.92
2022-12-08T15:02:31.844Z,98606.15
2022-12-08T15:04:40.671Z,98604.52
2022-12-08T15:06:52.358Z,98610.50
2022-12-08T15:08:59.322Z,98611.11
2022-12-08T15:11:19.391Z,98614.42
2022-12-08T15:13:24.560Z,98612.38
2022-12-08T15:15:30.812Z,98616.73
2022-12-08T15:17:41.605Z,98614.83
2022-12-08T15:19:57.427Z,98616.98
2022-12-08T15:22:13.507Z,98617.88
2022-12-08T15:24:19.516Z,98623.13
2022-12-08T15:26:26.026Z,98618.59
2022-12-08T15:28:30.926Z,98619.80
2022-12-08T15:30:35.626Z,98620.15
2022-12-08T15:32:40.390Z,98618.88
2022-12-08T15:34:45.268Z,98615.98
2022-12-08T15:36:51.705Z,98617.40
2022-12-08T15:38:56.418Z,98620.11
2022-12-08T15:41:01.360Z,98620.08
2022-12-08T15:43:11.559Z,98620.13
2022-12-08T15:45:23.267Z,98619.15
2022-12-08T15:47:28.706Z,98618.96
2022-12-08T15:49:33.432Z,98614.05
2022-12-08T15:51:38.053Z,98615.67
2022-12-08T15:53:42.691Z,98615.91
2022-12-08T15:56:18.509Z,98616.70
2022-12-08T16:00:54.994Z,98616.55
2022-12-08T16:03:42.126Z,98616.05
2022-12-08T16:05:44.295Z,98614.73
2022-12-08T16:07:56.076Z,98615.14
2022-12-08T16:10:02.456Z,98611.17
2022-12-08T16:12:14.225Z,98615.92
2022-12-08T16:15:01.711Z,98618.14
2022-12-08T16:16:43.750Z,98620.11
2022-12-08T16:18:50.222Z,98618.20
2022-12-08T16:23:41.677Z,98620.70
2022-12-08T16:26:16.481Z,98618.32
2022-12-08T16:28:45.171Z,98617.96
2022-12-08T16:30:36.063Z,98617.85
2022-12-08T16:32:41.114Z,98620.23
2022-12-08T16:34:45.954Z,98618.52
2022-12-08T16:36:50.900Z,98616.63
2022-12-08T16:38:56.699Z,98616.63
2022-12-08T16:41:01.467Z,98614.95
2022-12-08T16:43:06.684Z,98614.83
2022-12-08T16:45:14.164Z,98611.63
2022-12-08T16:47:19.139Z,98609.88
2022-12-08T16:49:24.330Z,98610.95
2022-12-08T16:51:29.695Z,98611.70
2022-12-08T16:53:34.542Z,98613.58
2022-12-08T16:55:40.019Z,98613.29
2022-12-08T16:57:46.075Z,98614.79
2022-12-08T16:59:50.864Z,98610.95
2022-12-08T17:01:56.058Z,98616.52
2022-12-08T17:06:26.104Z,98613.64
2022-12-08T17:08:31.514Z,98616.33
2022-12-08T17:10:38.746Z,98617.17
2022-12-08T17:12:44.641Z,98610.02
2022-12-08T17:14:49.886Z,98609.06
2022-12-08T17:16:55.384Z,98610.95
2022-12-08T17:19:00.186Z,98611.13
2022-12-08T17:21:11.043Z,98609.70
2022-12-08T17:23:15.733Z,98616.56
2022-12-08T17:25:20.613Z,98612.77
2022-12-08T17:27:25.929Z,98613.06
2022-12-08T17:29:32.812Z,98612.13
2022-12-08T17:31:39.139Z,98616.41
2022-12-08T17:33:43.995Z,98613.23
2022-12-08T17:35:50.744Z,98616.14
2022-12-08T17:37:55.516Z,98614.74
2022-12-08T17:40:01.343Z,98607.06
2022-12-08T17:42:07.576Z,98604.39
2022-12-08T17:44:15.050Z,98603.12
2022-12-08T17:46:20.887Z,98603.54
2022-12-08T17:48:27.456Z,98605.44
2022-12-08T17:50:33.256Z,98600.52
2022-12-08T17:52:39.109Z,98602.35
2022-12-08T17:54:44.536Z,98601.75
2022-12-08T17:56:51.428Z,98599.08
2022-12-08T17:58:58.524Z,98600.27
2022-12-08T18:01:09.903Z,98598.77
2022-12-08T18:03:16.647Z,98599.17
2022-12-08T18:05:22.562Z,98596.72
2022-12-08T18:07:36.504Z,98596.23
2022-12-08T18:09:42.068Z,98593.88
2022-12-08T18:11:48.012Z,98593.54
2022-12-08T18:13:55.678Z,98590.96
2022-12-08T18:16:01.572Z,98587.98
2022-12-08T18:18:10.676Z,98590.61
2022-12-08T18:20:16.811Z,98590.91
2022-12-08T18:22:22.053Z,98588.79
2022-12-08T18:24:26.941Z,98587.81
2022-12-08T18:26:32.544Z,98581.98
2022-12-08T18:28:38.785Z,98577.69
2022-12-08T18:30:44.633Z,98577.40
2022-12-08T18:32:55.717Z,98574.80
2022-12-08T18:35:02.794Z,98578.10
2022-12-08T18:37:07.862Z,98576.93
2022-12-08T18:39:22.929Z,98579.45
2022-12-08T18:41:28.284Z,98581.04
2022-12-08T18:43:33.979Z,98576.13
2022-12-08T18:45:43.815Z,98578.39
2022-12-08T18:47:51.750Z,98575.88
2022-12-08T18:49:57.130Z,98573.73
2022-12-08T18:52:02.911Z,98574.98
2022-12-08T18:54:08.335Z,98585.95
2022-12-08T18:56:23.854Z,98589.40
2022-12-08T18:58:29.424Z,98590.29
2022-12-08T19:00:35.073Z,98590.85
2022-12-08T19:02:42.608Z,98591.79
2022-12-08T19:04:48.394Z,98589.00
2022-12-08T19:06:54.424Z,98589.11
2022-12-08T19:09:00.578Z,98586.09
2022-12-08T19:11:16.833Z,98584.23
2022-12-08T19:13:22.593Z,98587.08
2022-12-08T19:15:29.290Z,98589.31
2022-12-08T19:17:37.332Z,98592.71
2022-12-08T19:19:44.714Z,98590.98
2022-12-08T19:21:50.693Z,98597.31
2022-12-08T19:23:56.913Z,98599.12
2022-12-08T19:26:08.076Z,98596.49
2022-12-08T19:28:14.928Z,98595.23
2022-12-08T19:30:20.844Z,98590.84
2022-12-08T19:32:27.962Z,98590.52
2022-12-08T19:34:39.561Z,98587.67
2022-12-08T19:36:45.670Z,98590.52
2022-12-08T19:38:52.524Z,98595.56
2022-12-08T19:41:01.893Z,98599.04
2022-12-08T19:43:17.817Z,98602.23
2022-12-08T19:45:25.470Z,98595.76
2022-12-08T19:47:31.273Z,98590.15
2022-12-08T19:49:37.431Z,98587.87
2022-12-08T19:51:45.810Z,98591.41
2022-12-08T19:53:52.775Z,98589.12
2022-12-08T19:56:00.393Z,98589.34
2022-12-08T19:58:08.669Z,98583.59
2022-12-08T20:00:18.411Z,98581.42
2022-12-08T20:02:24.773Z,98580.76
2022-12-08T20:04:31.397Z,98579.85
2022-12-08T20:06:38.037Z,98579.54
2022-12-08T20:08:50.365Z,98575.55
2022-12-08T20:10:57.594Z,98582.30
2022-12-08T20:13:05.672Z,98582.50
2022-12-08T20:15:12.930Z,98585.18
2022-12-08T20:17:18.827Z,98581.53
2022-12-08T20:19:25.847Z,98584.45
2022-12-08T20:21:32.419Z,98579.54
2022-12-08T20:23:39.979Z,98578.50
2022-12-08T20:25:47.545Z,98579.39
2022-12-08T20:27:54.499Z,98580.60
2022-12-08T20:30:01.816Z,98578.99
2022-12-08T20:32:11.048Z,98583.31
2022-12-08T20:34:20.444Z,98585.16
2022-12-08T20:36:25.979Z,98583.83
2022-12-08T20:38:31.648Z,98580.52
2022-12-08T20:40:37.403Z,98583.72
2022-12-08T20:42:42.872Z,98580.46
2022-12-08T20:44:50.419Z,98580.43
2022-12-08T20:46:58.820Z,98577.14
2022-12-08T20:49:06.126Z,98579.14
2022-12-08T20:51:15.037Z,98578.89
2022-12-08T20:53:20.632Z,98581.69
2022-12-08T20:55:26.436Z,98586.77
2022-12-08T20:57:32.404Z,98589.86
2022-12-08T20:59:42.678Z,98587.38
2022-12-08T21:01:48.152Z,98584.24
2022-12-08T21:03:53.675Z,98588.83
2022-12-08T21:06:00.186Z,98590.80
2022-12-08T21:08:06.439Z,98590.84
2022-12-08T21:10:12.415Z,98586.55
2022-12-08T21:12:17.305Z,98586.48
2022-12-08T21:14:22.518Z,98578.45
2022-12-08T21:16:27.486Z,98575.02
2022-12-08T21:18:38.886Z,98573.09
2022-12-08T21:20:44.521Z,98572.66
2022-12-08T21:22:49.372Z,98576.73
2022-12-08T21:24:54.201Z,98573.98
2022-12-08T21:26:59.086Z,98574.83
2022-12-08T21:29:04.294Z,98576.48
2022-12-08T21:31:10.023Z,98575.77
2022-12-08T21:33:15.072Z,98571.14
2022-12-08T21:35:19.872Z,98566.58
2022-12-08T21:37:24.917Z,98566.46
2022-12-08T21:39:29.819Z,98565.88
2022-12-08T21:41:34.871Z,98559.48
2022-12-08T21:43:39.773Z,98558.54
2022-12-08T21:45:44.535Z,98564.73
2022-12-08T21:47:50.177Z,98568.56
2022-12-08T21:49:55.078Z,98569.77
2022-12-08T21:51:59.856Z,98563.75
2022-12-08T21:54:04.990Z,98560.02
2022-12-08T21:56:11.780Z,98561.13
2022-12-08T21:58:16.485Z,98562.66
2022-12-08T22:00:23.577Z,98561.80
2022-12-08T22:02:28.838Z,98563.13
2022-12-08T22:04:33.847Z,98563.21
2022-12-08T22:06:38.628Z,98565.73
2022-12-08T22:08:46.614Z,98565.95
2022-12-08T22:10:52.107Z,98572.57
2022-12-08T22:12:56.850Z,98575.73
2022-12-08T22:15:01.724Z,98569.90
2022-12-08T22:17:06.740Z,98571.23
2022-12-08T22:19:12.021Z,98565.51
2022-12-08T22:21:18.120Z,98568.48
2022-12-08T22:23:23.516Z,98569.27
2022-12-08T22:25:28.415Z,98572.02
2022-12-08T22:27:34.722Z,98570.38
2022-12-08T22:29:39.604Z,98567.69
2022-12-08T22:31:44.888Z,98564.04
2022-12-08T22:33:51.124Z,98564.27
2022-12-08T22:36:08.153Z,98563.87
2022-12-08T22:38:15.422Z,98563.07
2022-12-08T22:40:20.330Z,98559.15
2022-12-08T22:42:25.286Z,98559.21
2022-12-08T22:44:30.471Z,98559.43
2022-12-08T22:46:35.970Z,98554.96
2022-12-08T22:48:41.032Z,98556.23
2022-12-08T22:50:45.996Z,98561.70
2022-12-08T22:52:50.876Z,98555.70
2022-12-08T22:54:55.814Z,98553.04
2022-12-08T22:57:00.557Z,98551.56
2022-12-08T22:59:06.358Z,98553.02
2022-12-08T23:01:23.533Z,98552.15
2022-12-08T23:03:28.444Z,98549.48
2022-12-08T23:05:36.254Z,98548.95
2022-12-08T23:07:41.111Z,98551.90
2022-12-08T23:09:46.300Z,98543.77
2022-12-08T23:11:51.479Z,98536.92
2022-12-08T23:13:57.585Z,98539.02
2022-12-08T23:16:02.350Z,98536.63
2022-12-08T23:18:07.978Z,98541.85
2022-12-08T23:20:13.923Z,98539.47
2022-12-08T23:22:18.628Z,98539.06
2022-12-08T23:24:23.283Z,98541.95
2022-12-08T23:26:30.724Z,98548.61
2022-12-08T23:28:35.537Z,98547.36
2022-12-08T23:30:42.770Z,98551.46
2022-12-08T23:32:47.568Z,98553.30
2022-12-08T23:34:52.462Z,98555.06
2022-12-08T23:36:57.148Z,98559.05
2022-12-08T23:39:01.931Z,98562.98
2022-12-08T23:41:08.656Z,98558.41
2022-12-08T23:43:13.323Z,98552.73
2022-12-08T23:45:18.027Z,98551.55
2022-12-08T23:47:22.795Z,98554.56
2022-12-08T23:49:28.080Z,98554.31
2022-12-08T23:51:32.855Z,98552.52
2022-12-08T23:53:38.318Z,98549.98
2022-12-08T23:55:43.019Z,98546.04
2022-12-08T23:57:47.756Z,98549.81
2022-12-08T23:59:52.436Z,98550.81
